Terminal Aerodrome Forecast
Issued by NWS

Home | Current Version | Previous Version | Text Only | Print | Product List | Glossary On
Versions: 1 2 3 4 5 6 7 8 9 10 11 12 13 14 15 16 17 18 19 20 21
000
FTUS43 KEAX 241700
TAFSTJ
TAF
KSTJ 241720Z 2418/2518 10014KT 6SM BR OVC035
      TEMPO 2418/2422 OVC007
     FM242200 02010KT 5SM -RA BR OVC012
     FM250000 31004KT P6SM SCT020
     FM251200 18006KT P6SM BKN120=

USA.gov is the U.S. government's official web portal to all federal, state and local government web resources and services.